Time;durP1;ratioP1;P1;durP2;ratioP2;P2;SDS_P1;SDS_P2;PMS_P1;PMS_P2;Temp;Humidity;BMP_temperature;BMP_pressure;BME280_temperature;BME280_humidity;BME280_pressure;Samples;Min_cycle;Max_cycle;Signal;HPM_P1;HPM_P2
2021/04/18 07:01:05;;;;;;;11.00;7.37;;;;;;;5.07;80.57;99178.94;5694308;23;20074;-72
2021/04/18 07:03:30;;;;;;;13.68;8.38;;;;;;;5.37;78.74;99179.28;4976171;28;20070;-72
2021/04/18 07:05:59;;;;;;;11.10;7.85;;;;;;;5.59;80.62;99184.59;4976185;28;20030;-72
2021/04/18 07:08:33;;;;;;;12.63;7.63;;;;;;;6.11;76.75;99172.16;4976380;28;20022;-72
2021/04/18 07:11:14;;;;;;;14.98;9.07;;;;;;;5.46;78.63;99173.34;4976096;28;20050;-72
2021/04/18 07:13:41;;;;;;;10.43;7.82;;;;;;;5.52;79.46;99177.69;4976593;28;20031;-70
2021/04/18 07:16:30;;;;;;;12.82;8.15;;;;;;;6.18;77.32;99181.63;4976028;28;20495;-70
2021/04/18 07:18:57;;;;;;;10.68;8.02;;;;;;;5.68;77.83;99184.66;4975989;28;20037;-70
2021/04/18 07:21:23;;;;;;;12.00;8.68;;;;;;;5.76;76.56;99183.03;4975791;28;20046;-70
2021/04/18 07:23:49;;;;;;;10.77;8.60;;;;;;;6.43;74.54;99175.78;4975985;28;20357;-70
2021/04/18 07:26:27;;;;;;;11.50;8.90;;;;;;;5.96;76.06;99174.63;4973982;28;20054;-70
2021/04/18 07:29:11;;;;;;;13.15;9.40;;;;;;;5.67;75.96;99181.25;4975987;28;20072;-70
2021/04/18 07:31:37;;;;;;;13.88;9.23;;;;;;;5.86;76.33;99174.53;4975597;28;20031;-70
2021/04/18 07:34:08;;;;;;;11.63;8.70;;;;;;;6.33;75.08;99166.25;4975688;28;20029;-70
2021/04/18 07:36:35;;;;;;;11.85;8.30;;;;;;;6.83;74.05;99165.63;4975676;28;20035;-71
2021/04/18 07:39:03;;;;;;;11.88;8.27;;;;;;;6.89;73.21;99168.22;4975535;28;20023;-70
2021/04/18 07:41:29;;;;;;;9.15;7.80;;;;;;;6.89;72.99;99173.38;4975369;28;20536;-70
2021/04/18 07:43:54;;;;;;;9.07;7.90;;;;;;;6.99;72.63;99165.69;4975511;28;20114;-70
2021/04/18 07:46:20;;;;;;;12.35;8.85;;;;;;;6.88;72.91;99171.66;4975705;28;20109;-70
2021/04/18 07:48:47;;;;;;;14.40;8.80;;;;;;;7.13;72.60;99166.56;4975568;28;20023;-70
2021/04/18 07:51:14;;;;;;;9.45;7.78;;;;;;;7.12;71.88;99167.44;4975176;28;20034;-70
2021/04/18 07:53:41;;;;;;;9.55;8.15;;;;;;;7.06;70.44;99169.97;4975373;28;20057;-70
2021/04/18 07:56:14;;;;;;;9.38;7.65;;;;;;;7.37;72.22;99166.59;4975444;28;20022;-70
2021/04/18 07:58:41;;;;;;;9.60;8.32;;;;;;;6.78;75.00;99167.34;4975378;28;20027;-70
2021/04/18 08:01:08;;;;;;;10.98;7.95;;;;;;;7.48;71.60;99170.03;4974988;28;20039;-70
2021/04/18 08:03:33;;;;;;;11.40;8.40;;;;;;;7.43;70.68;99169.19;4975172;28;20031;-71
2021/04/18 08:05:59;;;;;;;14.35;8.25;;;;;;;7.43;71.22;99171.75;4975078;28;20057;-70
2021/04/18 08:08:42;;;;;;;11.82;8.30;;;;;;;7.77;70.54;99170.91;4975128;28;20031;-70
2021/04/18 08:11:10;;;;;;;10.80;7.70;;;;;;;7.67;70.45;99162.31;4974910;28;20034;-70
2021/04/18 08:13:42;;;;;;;12.10;8.23;;;;;;;7.27;71.91;99170.03;4975102;28;20026;-70
2021/04/18 08:16:09;;;;;;;9.00;7.68;;;;;;;6.57;72.87;99159.50;4974917;28;20030;-71
2021/04/18 08:18:37;;;;;;;11.05;7.75;;;;;;;7.35;71.76;99162.28;4974652;28;20500;-71
2021/04/18 08:21:39;;;;;;;16.08;7.50;;;;;;;7.43;69.40;99164.03;4974638;28;20065;-70
2021/04/18 08:24:07;;;;;;;12.07;7.40;;;;;;;7.63;70.04;99165.75;4969363;28;20069;-71
2021/04/18 08:26:35;;;;;;;9.57;7.30;;;;;;;7.62;70.53;99167.47;4974817;28;20027;-71
2021/04/18 08:29:04;;;;;;;12.30;7.20;;;;;;;7.83;67.21;99161.47;4974596;28;20133;-71
2021/04/18 08:31:52;;;;;;;9.63;7.30;;;;;;;7.86;68.55;99165.75;4974661;28;20035;-72
2021/04/18 08:34:25;;;;;;;8.18;6.10;;;;;;;8.04;67.46;99159.72;4974694;28;20034;-70
2021/04/18 08:36:52;;;;;;;12.68;7.97;;;;;;;8.00;68.82;99169.19;4973649;28;20035;-71
2021/04/18 08:39:21;;;;;;;10.70;7.13;;;;;;;8.28;65.86;99169.13;4974477;28;20031;-71
2021/04/18 08:41:55;;;;;;;9.50;7.07;;;;;;;8.01;66.90;99167.44;4974363;28;20027;-71
2021/04/18 08:44:39;;;;;;;10.77;7.57;;;;;;;7.96;68.43;99172.63;4974397;28;20031;-70
2021/04/18 08:47:04;;;;;;;14.68;9.85;;;;;;;8.12;66.10;99163.13;4974380;28;20019;-70
2021/04/18 08:49:47;;;;;;;9.35;6.72;;;;;;;8.30;66.98;99152.75;4974251;28;20034;-70
2021/04/18 08:52:26;;;;;;;10.65;7.15;;;;;;;8.53;65.90;99162.19;4974260;28;20030;-71
2021/04/18 08:54:53;;;;;;;15.77;7.13;;;;;;;8.74;64.54;99154.34;4974342;28;20031;-70
2021/04/18 08:57:22;;;;;;;11.55;6.80;;;;;;;8.93;64.20;99161.16;4974247;28;20102;-71
2021/04/18 08:59:54;;;;;;;10.00;6.63;;;;;;;9.13;61.54;99157.59;4974058;28;20387;-71
2021/04/18 09:02:20;;;;;;;10.23;5.97;;;;;;;9.69;59.39;99158.94;4973960;28;20027;-72
2021/04/18 09:04:49;;;;;;;8.50;6.70;;;;;;;9.63;60.08;99165.00;4974046;28;20118;-73
2021/04/18 09:07:17;;;;;;;10.55;6.63;;;;;;;9.18;62.89;99161.00;4974059;28;20357;-74
2021/04/18 09:09:44;;;;;;;7.70;6.03;;;;;;;9.21;63.08;99161.00;4973837;28;20034;-72
2021/04/18 09:12:10;;;;;;;9.07;6.22;;;;;;;9.08;62.31;99164.50;4973986;28;20018;-71
2021/04/18 09:14:43;;;;;;;8.02;6.97;;;;;;;8.93;63.35;99162.88;4973949;28;20027;-71
2021/04/18 09:17:21;;;;;;;10.70;6.15;;;;;;;9.50;60.90;99163.38;4973779;28;20022;-71
2021/04/18 09:19:49;;;;;;;8.88;5.80;;;;;;;9.52;60.76;99157.34;4973700;28;20026;-71
2021/04/18 09:22:28;;;;;;;9.45;5.82;;;;;;;9.93;59.89;99158.72;4973692;28;20023;-72
2021/04/18 09:24:55;;;;;;;14.23;8.80;;;;;;;9.50;63.23;99169.41;4973719;28;20026;-71
2021/04/18 09:27:41;;;;;;;11.85;6.43;;;;;;;9.70;60.66;99165.81;4973775;28;20053;-72
2021/04/18 09:30:14;;;;;;;12.50;5.57;;;;;;;9.42;60.11;99166.00;4973430;28;20022;-71
2021/04/18 09:32:47;;;;;;;14.57;7.55;;;;;;;8.39;65.75;99168.25;4973648;28;20027;-71
2021/04/18 09:35:15;;;;;;;11.48;6.75;;;;;;;8.81;64.60;99175.88;4973638;28;20027;-72
2021/04/18 09:37:42;;;;;;;9.45;6.03;;;;;;;8.86;61.49;99169.81;4973497;28;20021;-73
2021/04/18 09:40:12;;;;;;;7.03;5.88;;;;;;;9.01;62.70;99164.56;4971888;28;20694;-71
2021/04/18 09:42:45;;;;;;;6.63;5.70;;;;;;;9.38;60.74;99168.63;4973593;28;20388;-70
2021/04/18 09:45:15;;;;;;;10.38;7.03;;;;;;;9.36;60.39;99166.06;4973432;28;20405;-70
2021/04/18 09:47:46;;;;;;;13.40;5.70;;;;;;;9.50;59.18;99174.59;4973094;28;20392;-70
2021/04/18 09:50:20;;;;;;;10.88;6.38;;;;;;;9.40;60.27;99174.66;4972973;28;20066;-70
2021/04/18 09:52:46;;;;;;;10.38;7.05;;;;;;;9.14;60.63;99175.69;4965783;28;20383;-71
2021/04/18 09:55:23;;;;;;;9.32;5.93;;;;;;;9.14;59.84;99174.84;4973316;28;20093;-71
2021/04/18 09:57:53;;;;;;;11.00;6.93;;;;;;;9.07;62.32;99173.16;4965718;28;20018;-72
2021/04/18 10:00:21;;;;;;;14.65;6.30;;;;;;;9.19;60.25;99173.09;4972922;28;20095;-72
2021/04/18 10:03:09;;;;;;;19.10;7.97;;;;;;;8.60;62.87;99166.47;4972072;28;20023;-72
2021/04/18 10:05:45;;;;;;;29.35;12.73;;;;;;;8.54;62.69;99171.66;4973291;28;20054;-71
2021/04/18 10:08:17;;;;;;;17.88;8.25;;;;;;;9.23;62.39;99172.16;4973227;28;20574;-71
2021/04/18 10:10:43;;;;;;;8.63;6.05;;;;;;;9.28;60.00;99170.41;4964867;28;20033;-71
2021/04/18 10:13:09;;;;;;;8.10;6.13;;;;;;;9.27;59.59;99160.94;4972673;28;20023;-68
2021/04/18 10:15:53;;;;;;;9.32;6.30;;;;;;;8.93;59.77;99171.47;4972715;28;20384;-69
2021/04/18 10:18:20;;;;;;;13.38;7.78;;;;;;;8.83;59.89;99174.97;4972757;28;20031;-69
2021/04/18 10:20:47;;;;;;;10.05;6.70;;;;;;;8.80;60.37;99164.69;4972590;28;20019;-69
2021/04/18 10:23:13;;;;;;;21.33;9.80;;;;;;;8.92;62.23;99164.59;4971676;28;20033;-68
2021/04/18 10:25:39;;;;;;;15.68;7.40;;;;;;;8.97;60.43;99168.03;4972801;28;20031;-69
2021/04/18 10:28:06;;;;;;;8.68;6.43;;;;;;;9.03;61.09;99164.53;4973015;28;20380;-69
2021/04/18 10:30:33;;;;;;;14.32;7.35;;;;;;;9.40;60.40;99159.16;4972399;28;20492;-69
2021/04/18 10:32:59;;;;;;;9.82;6.65;;;;;;;9.39;58.68;99158.28;4973022;28;20054;-68
2021/04/18 10:35:26;;;;;;;12.50;6.85;;;;;;;10.19;58.13;99160.19;4972873;28;20047;-68
2021/04/18 10:37:51;;;;;;;10.20;6.65;;;;;;;10.90;54.64;99150.75;4972588;28;20035;-68
2021/04/18 10:40:19;;;;;;;13.98;6.40;;;;;;;11.46;53.69;99151.66;4972276;28;20531;-69
2021/04/18 10:42:44;;;;;;;10.23;6.43;;;;;;;11.86;51.56;99148.44;4972942;28;20027;-69
2021/04/18 10:45:12;;;;;;;9.65;6.20;;;;;;;12.61;51.42;99131.41;4972751;28;20411;-69
2021/04/18 10:47:37;;;;;;;11.85;6.55;;;;;;;12.04;51.71;99145.53;4972594;28;20420;-69
2021/04/18 10:50:04;;;;;;;10.43;6.82;;;;;;;11.82;51.10;99139.00;4972496;28;20106;-69
2021/04/18 10:52:31;;;;;;;8.77;6.15;;;;;;;11.16;52.47;99145.19;4972304;28;20026;-68
2021/04/18 10:54:56;;;;;;;11.77;7.30;;;;;;;11.09;53.55;99148.75;4972697;28;20161;-68
2021/04/18 10:57:22;;;;;;;8.75;6.93;;;;;;;10.21;56.32;99143.75;4972507;28;20103;-69
2021/04/18 10:59:48;;;;;;;11.30;7.15;;;;;;;10.21;56.82;99142.91;4972774;28;20387;-69
2021/04/18 11:02:13;;;;;;;13.73;7.15;;;;;;;9.89;57.16;99151.84;4975880;28;20034;-68
2021/04/18 11:04:38;;;;;;;14.25;7.28;;;;;;;10.04;57.15;99146.50;4976087;28;20023;-68
2021/04/18 11:07:04;;;;;;;11.23;6.97;;;;;;;10.11;57.01;99143.88;4975859;28;20046;-69
2021/04/18 11:09:30;;;;;;;12.18;7.47;;;;;;;9.75;57.23;99143.34;4975881;28;20027;-69
2021/04/18 11:11:55;;;;;;;13.60;6.97;;;;;;;9.89;58.45;99141.47;4975802;28;20031;-69
2021/04/18 11:14:21;;;;;;;14.80;6.45;;;;;;;10.15;58.14;99142.94;4975778;28;20034;-68
2021/04/18 11:16:47;;;;;;;9.77;6.57;;;;;;;9.93;56.68;99143.19;4975976;28;20038;-68
2021/04/18 11:19:13;;;;;;;15.35;7.55;;;;;;;9.61;57.87;99135.69;4975788;28;20027;-68
2021/04/18 11:21:38;;;;;;;10.95;6.55;;;;;;;9.68;58.20;99139.09;4975545;28;20081;-68
2021/04/18 11:24:05;;;;;;;10.02;6.75;;;;;;;9.93;57.76;99132.81;4975711;28;20030;-68
2021/04/18 11:26:31;;;;;;;11.70;6.30;;;;;;;10.38;57.15;99134.97;4975613;28;20410;-68
2021/04/18 11:28:56;;;;;;;10.52;7.00;;;;;;;10.45;57.07;99132.31;4975734;28;20158;-68
2021/04/18 11:31:22;;;;;;;11.25;6.63;;;;;;;10.75;55.02;99127.63;4975126;28;20070;-68
2021/04/18 11:33:48;;;;;;;10.63;7.05;;;;;;;10.91;54.21;99123.94;4975695;28;20373;-69
2021/04/18 11:36:15;;;;;;;12.50;6.75;;;;;;;11.26;53.75;99130.34;4975557;28;20019;-69
2021/04/18 11:38:40;;;;;;;11.18;6.97;;;;;;;11.11;53.28;99133.16;4975473;28;20555;-68
2021/04/18 11:41:06;;;;;;;9.63;7.13;;;;;;;11.31;52.77;99136.31;4975184;28;20109;-68
2021/04/18 11:43:31;;;;;;;10.60;7.00;;;;;;;11.68;53.10;99133.13;4975356;28;20046;-68
2021/04/18 11:45:57;;;;;;;10.95;6.30;;;;;;;11.70;52.73;99131.38;4975284;28;20174;-68
2021/04/18 11:48:23;;;;;;;11.25;6.53;;;;;;;11.44;52.24;99130.06;4974903;28;20023;-68
2021/04/18 11:50:48;;;;;;;7.07;6.03;;;;;;;11.40;54.38;99130.97;4974898;28;20038;-67
2021/04/18 11:53:14;;;;;;;9.82;6.53;;;;;;;11.66;52.14;99119.34;4975093;28;20030;-67
2021/04/18 11:55:39;;;;;;;9.20;6.68;;;;;;;11.26;51.99;99127.75;4975168;28;20105;-67
2021/04/18 11:58:05;;;;;;;11.00;7.57;;;;;;;11.16;53.43;99126.16;4975141;28;20023;-67
2021/04/18 12:00:30;;;;;;;10.55;6.70;;;;;;;10.98;55.15;99117.78;4973284;28;20482;-67
2021/04/18 12:02:56;;;;;;;13.68;6.57;;;;;;;10.83;53.46;99123.19;4975014;28;20030;-67
2021/04/18 12:05:21;;;;;;;10.50;6.47;;;;;;;11.23;53.46;99118.28;4974949;28;20038;-68
2021/04/18 12:07:46;;;;;;;9.48;6.72;;;;;;;10.94;54.95;99116.13;4974890;28;20037;-68
2021/04/18 12:10:13;;;;;;;8.98;6.28;;;;;;;10.51;55.19;99119.28;4974636;28;20023;-68
2021/04/18 12:12:40;;;;;;;8.07;6.45;;;;;;;10.55;55.39;99123.53;4974711;28;20029;-68
2021/04/18 12:15:10;;;;;;;11.05;6.07;;;;;;;10.60;54.59;99110.53;4974854;28;20026;-68
2021/04/18 12:17:36;;;;;;;8.63;5.75;;;;;;;10.53;55.37;99114.91;4974703;28;20054;-68
2021/04/18 12:20:05;;;;;;;10.40;6.57;;;;;;;10.26;55.06;99115.25;4974411;28;20118;-68
2021/04/18 12:22:31;;;;;;;6.70;6.00;;;;;;;10.24;55.00;99114.41;4974506;28;20420;-68
2021/04/18 12:24:56;;;;;;;10.68;7.00;;;;;;;10.22;55.98;99105.78;4974601;28;20038;-68
2021/04/18 12:27:22;;;;;;;11.05;7.75;;;;;;;10.22;55.44;99110.94;4974591;28;20046;-68
2021/04/18 12:29:47;;;;;;;8.18;6.65;;;;;;;10.19;55.52;99108.38;4973975;28;20031;-68
2021/04/18 12:32:13;;;;;;;27.08;16.20;;;;;;;10.50;55.62;99104.59;4974288;28;20058;-68
2021/04/18 12:34:38;;;;;;;13.60;6.18;;;;;;;10.43;54.92;99113.31;4974359;28;20038;-67
2021/04/18 12:37:03;;;;;;;9.13;6.45;;;;;;;10.33;56.20;99106.53;4974432;28;20026;-67
2021/04/18 12:39:29;;;;;;;9.75;6.95;;;;;;;10.03;57.51;99103.38;4974350;28;20415;-67
2021/04/18 12:41:55;;;;;;;10.25;7.38;;;;;;;10.21;58.99;99114.44;4974283;28;20105;-67
2021/04/18 12:44:21;;;;;;;19.20;11.82;;;;;;;10.16;58.12;99109.28;4974246;28;20395;-69
2021/04/18 12:46:46;;;;;;;15.20;9.68;;;;;;;10.22;59.36;99113.53;4974127;28;20026;-68
2021/04/18 12:49:11;;;;;;;10.27;7.05;;;;;;;10.16;58.58;99113.63;4974202;28;20026;-67
2021/04/18 12:51:37;;;;;;;12.40;6.90;;;;;;;9.69;58.53;99117.53;4973733;28;20388;-70
2021/04/18 12:54:05;;;;;;;11.15;7.30;;;;;;;9.79;58.57;99113.97;4974089;28;20434;-71
2021/04/18 12:56:31;;;;;;;8.43;6.72;;;;;;;9.71;59.02;99118.34;4973922;28;20042;-70
2021/04/18 12:58:56;;;;;;;13.70;7.32;;;;;;;9.50;59.37;99128.03;4973892;28;20030;-72
2021/04/18 13:01:22;;;;;;;11.63;7.50;;;;;;;9.60;59.02;99117.59;4973489;28;20045;-67
2021/04/18 13:03:47;;;;;;;9.23;7.32;;;;;;;9.35;60.50;99117.81;4973806;28;20030;-66
2021/04/18 13:06:12;;;;;;;14.50;6.63;;;;;;;9.64;60.39;99120.16;4973668;28;20027;-67
2021/04/18 13:08:38;;;;;;;11.90;7.60;;;;;;;9.90;59.59;99116.47;4973800;28;20240;-67
2021/04/18 13:11:04;;;;;;;9.60;6.88;;;;;;;9.75;59.14;99117.47;4973513;28;20479;-67
2021/04/18 13:13:29;;;;;;;9.45;6.93;;;;;;;10.17;56.97;99110.16;4973551;28;20392;-67
2021/04/18 13:15:54;;;;;;;14.50;7.95;;;;;;;10.28;57.94;99110.91;4974220;28;20035;-71
2021/04/18 13:18:20;;;;;;;13.05;7.07;;;;;;;10.77;54.54;99113.75;4973518;28;20027;-70
2021/04/18 13:20:45;;;;;;;13.50;6.82;;;;;;;11.06;53.72;99102.97;4973327;28;20033;-70
2021/04/18 13:23:10;;;;;;;11.75;6.80;;;;;;;10.75;55.59;99106.88;4971681;28;20037;-70
2021/04/18 13:25:36;;;;;;;10.38;6.68;;;;;;;11.37;52.75;99099.06;4973495;28;20018;-71
2021/04/18 13:28:02;;;;;;;9.25;6.30;;;;;;;11.82;51.95;99097.44;4973467;28;20154;-71
2021/04/18 13:30:27;;;;;;;9.35;6.30;;;;;;;12.13;52.36;99092.53;4973074;28;20030;-75
2021/04/18 13:32:53;;;;;;;11.73;8.60;;;;;;;11.80;51.68;99105.25;4973515;28;20037;-73
2021/04/18 13:35:19;;;;;;;11.32;7.13;;;;;;;11.51;51.71;99097.97;4973235;28;20034;-73
2021/04/18 13:37:45;;;;;;;9.55;6.72;;;;;;;11.57;52.36;99103.03;4973572;28;20026;-70
2021/04/18 13:40:12;;;;;;;9.80;6.80;;;;;;;11.56;55.37;99096.13;4973082;28;20089;-72
2021/04/18 13:42:38;;;;;;;9.65;7.13;;;;;;;10.99;53.74;99097.91;4973348;28;20129;-73
2021/04/18 13:45:06;;;;;;;10.38;6.03;;;;;;;11.87;51.51;99090.44;4973155;28;20027;-72
2021/04/18 13:47:32;;;;;;;11.05;7.03;;;;;;;10.77;54.70;99092.16;4973235;28;20030;-71
2021/04/18 13:49:57;;;;;;;8.25;6.45;;;;;;;11.17;52.73;99091.56;4972806;28;20114;-72
2021/04/18 13:52:23;;;;;;;12.30;7.15;;;;;;;11.81;50.99;99093.97;4972553;28;20043;-73
2021/04/18 13:54:48;;;;;;;8.75;6.13;;;;;;;12.03;51.33;99081.47;4972983;28;20019;-73
2021/04/18 13:57:14;;;;;;;13.38;7.32;;;;;;;10.59;54.47;99092.38;4973084;28;20027;-71
2021/04/18 13:59:39;;;;;;;10.10;7.15;;;;;;;10.90;55.17;99091.09;4972919;28;20045;-73
2021/04/18 14:02:04;;;;;;;11.98;7.78;;;;;;;11.40;54.02;99097.25;4972466;28;20033;-72
2021/04/18 14:04:29;;;;;;;12.93;7.07;;;;;;;11.76;52.08;99087.16;4972853;28;20015;-73
2021/04/18 14:06:56;;;;;;;13.57;6.60;;;;;;;11.53;51.23;99091.00;4972915;28;20428;-75
2021/04/18 14:09:21;;;;;;;10.15;6.85;;;;;;;11.87;52.47;99090.44;4972622;28;20027;-66
2021/04/18 14:11:47;;;;;;;10.55;6.60;;;;;;;11.98;52.08;99083.28;4972297;28;20030;-73
2021/04/18 14:14:12;;;;;;;10.63;6.53;;;;;;;11.80;51.46;99079.28;4972786;28;20392;-72
2021/04/18 14:16:37;;;;;;;11.15;6.43;;;;;;;12.03;51.91;99078.88;4973127;28;20121;-73
2021/04/18 14:19:03;;;;;;;12.55;6.65;;;;;;;11.45;52.29;99085.06;4972757;28;20023;-71
2021/04/18 14:21:28;;;;;;;12.20;7.88;;;;;;;11.95;52.01;99072.97;4972550;28;20635;-73
2021/04/18 14:23:54;;;;;;;9.35;6.53;;;;;;;11.76;51.95;99068.97;4971506;28;20026;-70
2021/04/18 14:26:22;;;;;;;11.15;6.30;;;;;;;11.79;51.83;99071.50;4971430;28;20085;-72
2021/04/18 14:28:47;;;;;;;12.32;7.55;;;;;;;12.25;50.27;99070.66;4972648;28;20377;-76
2021/04/18 14:31:13;;;;;;;10.05;7.05;;;;;;;12.20;50.01;99059.53;4972583;28;20069;-76
2021/04/18 14:33:38;;;;;;;9.13;7.55;;;;;;;12.55;49.16;99064.81;4972828;28;20093;-76
2021/04/18 14:36:04;;;;;;;11.90;6.78;;;;;;;12.35;49.72;99061.81;4976521;28;20031;-76
2021/04/18 14:38:31;;;;;;;10.98;7.18;;;;;;;11.85;50.35;99076.63;4976455;28;20027;-76
2021/04/18 14:40:57;;;;;;;13.38;7.65;;;;;;;11.12;53.76;99077.81;4976363;28;20027;-75
2021/04/18 14:43:23;;;;;;;9.55;7.18;;;;;;;11.28;53.22;99068.94;4975275;28;20061;-75
2021/04/18 14:45:48;;;;;;;12.48;9.00;;;;;;;11.29;52.24;99065.44;4976361;28;20075;-76
2021/04/18 14:48:15;;;;;;;11.52;7.93;;;;;;;11.30;52.98;99067.16;4976313;28;20509;-75
2021/04/18 14:50:40;;;;;;;9.20;6.97;;;;;;;11.38;53.34;99060.13;4974774;28;20084;-76
2021/04/18 14:53:06;;;;;;;13.15;8.80;;;;;;;11.78;52.31;99056.81;4976377;28;20026;-75
2021/04/18 14:55:31;;;;;;;10.73;7.47;;;;;;;12.13;52.47;99053.56;4976129;28;20033;-75
2021/04/18 14:57:57;;;;;;;10.27;7.65;;;;;;;12.08;51.77;99053.66;4976117;28;20019;-75
2021/04/18 15:00:25;;;;;;;10.00;7.53;;;;;;;11.89;52.55;99057.50;4975723;28;20147;-73
2021/04/18 15:02:51;;;;;;;11.82;7.57;;;;;;;11.80;51.58;99057.66;4976243;28;20096;-73
2021/04/18 15:05:18;;;;;;;9.48;7.20;;;;;;;11.72;52.72;99064.72;4975997;28;20497;-74
2021/04/18 15:07:45;;;;;;;11.80;7.85;;;;;;;10.92;54.51;99060.81;4976029;28;20093;-73
2021/04/18 15:10:11;;;;;;;12.90;7.35;;;;;;;11.46;53.03;99059.97;4975735;28;20027;-73
2021/04/18 15:12:36;;;;;;;14.40;8.57;;;;;;;10.99;53.69;99066.78;4974786;28;20015;-73
2021/04/18 15:15:02;;;;;;;14.30;8.00;;;;;;;10.58;55.65;99059.59;4975827;28;20049;-73
2021/04/18 15:17:27;;;;;;;11.00;7.70;;;;;;;11.13;54.74;99069.19;4975718;28;20031;-73
2021/04/18 15:19:53;;;;;;;11.20;7.68;;;;;;;10.82;54.96;99067.88;4975647;28;20045;-73
2021/04/18 15:22:19;;;;;;;11.70;7.63;;;;;;;11.28;53.43;99068.94;4975614;28;20534;-73
2021/04/18 15:24:47;;;;;;;13.10;7.68;;;;;;;11.03;55.46;99066.72;4975804;28;20027;-73
2021/04/18 15:27:12;;;;;;;10.27;7.20;;;;;;;11.25;53.53;99068.97;4975631;28;20506;-72
2021/04/18 15:29:38;;;;;;;10.43;7.10;;;;;;;11.30;54.72;99062.81;4974301;28;20031;-72
2021/04/18 15:32:03;;;;;;;12.57;7.80;;;;;;;11.08;54.53;99066.66;4974109;28;20101;-73
2021/04/18 15:34:29;;;;;;;13.77;8.88;;;;;;;10.95;55.74;99065.13;4975527;28;20058;-72
2021/04/18 15:36:54;;;;;;;11.15;8.18;;;;;;;10.88;54.29;99074.72;4975414;28;20106;-72
2021/04/18 15:39:20;;;;;;;13.52;8.05;;;;;;;10.45;55.86;99071.88;4975392;28;20038;-72
2021/04/18 15:41:46;;;;;;;14.63;8.32;;;;;;;10.64;55.84;99067.31;4975089;28;20522;-72
2021/04/18 15:44:14;;;;;;;11.07;7.43;;;;;;;10.65;56.10;99071.59;4975233;28;20030;-72
2021/04/18 15:46:42;;;;;;;12.77;8.55;;;;;;;10.40;57.55;99071.94;4974717;28;20046;-72
2021/04/18 15:49:08;;;;;;;15.57;11.27;;;;;;;10.39;57.81;99080.53;4973927;28;20105;-72
2021/04/18 15:51:35;;;;;;;12.18;8.23;;;;;;;10.36;57.68;99080.59;4975053;28;20047;-72
2021/04/18 15:54:01;;;;;;;14.85;8.68;;;;;;;10.16;56.99;99080.81;4975170;28;20034;-72
2021/04/18 15:56:26;;;;;;;13.35;9.40;;;;;;;9.91;58.51;99080.22;4973881;28;20062;-72
2021/04/18 15:58:52;;;;;;;15.27;8.88;;;;;;;9.68;59.07;99084.78;4974864;28;20018;-72
2021/04/18 16:01:28;;;;;;;15.40;9.27;;;;;;;9.38;59.35;99079.00;4973351;28;20073;-72
2021/04/18 16:03:54;;;;;;;16.90;9.57;;;;;;;9.71;58.63;99074.38;4974854;28;20035;-72
2021/04/18 16:06:21;;;;;;;10.63;8.38;;;;;;;9.76;58.55;99072.59;4974939;28;20027;-72
2021/04/18 16:08:50;;;;;;;10.70;8.02;;;;;;;9.70;58.59;99078.69;4974824;28;20033;-73
2021/04/18 16:11:17;;;;;;;10.20;7.57;;;;;;;9.70;59.47;99077.84;4974525;28;20058;-72
2021/04/18 16:13:42;;;;;;;13.73;8.27;;;;;;;9.51;58.82;99074.56;4974861;28;20424;-75
2021/04/18 16:16:08;;;;;;;11.95;8.48;;;;;;;9.58;59.32;99080.56;4974684;28;20030;-76
2021/04/18 16:18:34;;;;;;;13.00;8.70;;;;;;;9.53;58.99;99075.44;4973440;28;20365;-76
2021/04/18 16:20:59;;;;;;;15.25;9.95;;;;;;;9.71;59.27;99076.97;4974495;28;20026;-76
2021/04/18 16:23:24;;;;;;;17.30;11.68;;;;;;;9.90;58.83;99077.63;4974745;28;20026;-76
2021/04/18 16:25:50;;;;;;;17.73;9.40;;;;;;;9.94;59.19;99082.75;4974394;28;20483;-76
2021/04/18 16:28:15;;;;;;;14.93;8.93;;;;;;;10.16;57.24;99079.97;4973246;28;20045;-76
2021/04/18 16:30:40;;;;;;;19.17;13.48;;;;;;;10.13;56.95;99082.56;4974285;28;20440;-76
2021/04/18 16:33:06;;;;;;;14.70;8.27;;;;;;;10.13;57.37;99082.56;4974520;28;20065;-76
2021/04/18 16:35:31;;;;;;;13.15;8.85;;;;;;;10.35;57.65;99078.91;4974576;28;20058;-76
2021/04/18 16:37:58;;;;;;;12.55;7.88;;;;;;;10.40;57.23;99086.63;4974180;28;20027;-77
2021/04/18 16:40:25;;;;;;;14.68;9.88;;;;;;;10.31;57.63;99092.75;4974118;28;20392;-75
2021/04/18 16:42:51;;;;;;;23.75;13.55;;;;;;;10.07;59.33;99091.28;4974206;28;20113;-76
2021/04/18 16:45:17;;;;;;;12.40;7.57;;;;;;;10.10;58.07;99092.94;4974336;28;20054;-74
2021/04/18 16:47:43;;;;;;;18.88;12.23;;;;;;;10.31;57.92;99097.94;4974103;28;20092;-76
2021/04/18 16:50:10;;;;;;;19.13;13.27;;;;;;;10.48;57.14;99095.97;4974058;28;20019;-74
2021/04/18 16:52:35;;;;;;;17.73;9.00;;;;;;;10.33;57.44;99091.00;4958263;28;20027;-73
2021/04/18 16:55:02;;;;;;;13.25;8.02;;;;;;;10.22;57.76;99092.81;4974299;28;20085;-76
2021/04/18 16:57:27;;;;;;;13.10;9.48;;;;;;;10.07;58.46;99093.84;4973012;28;20031;-75
2021/04/18 16:59:53;;;;;;;15.23;9.38;;;;;;;9.84;59.48;99106.16;4973799;28;20042;-75
2021/04/18 17:02:20;;;;;;;14.85;9.30;;;;;;;9.70;61.06;99104.56;4973757;28;20034;-76
2021/04/18 17:04:46;;;;;;;31.67;19.45;;;;;;;9.87;59.72;99101.84;4973821;28;20022;-76
2021/04/18 17:07:12;;;;;;;60.88;31.02;;;;;;;9.77;59.76;99110.56;4973896;28;20030;-76
2021/04/18 17:09:37;;;;;;;26.13;14.50;;;;;;;9.87;60.02;99106.16;4973824;28;20077;-76
2021/04/18 17:12:03;;;;;;;14.45;8.80;;;;;;;10.15;58.38;99099.78;4973481;28;20041;-76
2021/04/18 17:14:29;;;;;;;21.13;12.25;;;;;;;9.96;58.95;99106.91;4973609;28;20488;-75
2021/04/18 17:16:55;;;;;;;19.02;10.95;;;;;;;10.08;57.97;99102.47;4973694;28;20073;-75
2021/04/18 17:19:20;;;;;;;16.45;11.52;;;;;;;9.94;58.56;99108.66;4973713;28;20031;-76
2021/04/18 17:21:45;;;;;;;19.50;8.85;;;;;;;9.61;59.33;99109.81;4973308;28;20428;-75
2021/04/18 17:24:11;;;;;;;12.30;7.75;;;;;;;9.41;59.57;99112.56;4972230;28;20043;-73
2021/04/18 17:26:36;;;;;;;13.07;8.90;;;;;;;9.40;60.64;99110.88;4972268;28;20022;-74
2021/04/18 17:29:02;;;;;;;13.85;8.25;;;;;;;9.51;61.00;99103.88;4973577;28;20045;-74
2021/04/18 17:31:27;;;;;;;11.80;8.32;;;;;;;9.44;61.22;99106.53;4973196;28;20370;-70
2021/04/18 17:33:52;;;;;;;13.52;8.70;;;;;;;9.40;62.65;99104.84;4973481;28;20660;-75
2021/04/18 17:36:18;;;;;;;12.77;8.98;;;;;;;9.60;60.81;99112.44;4973230;28;20035;-73
2021/04/18 17:38:43;;;;;;;13.73;7.97;;;;;;;9.49;60.56;99110.78;4972955;28;20023;-71
2021/04/18 17:41:08;;;;;;;13.95;8.43;;;;;;;9.40;61.00;99116.03;4972576;28;20029;-76
2021/04/18 17:43:34;;;;;;;17.40;8.75;;;;;;;9.38;62.63;99122.97;4972077;28;20026;-73
2021/04/18 17:46:01;;;;;;;13.30;8.38;;;;;;;9.34;63.02;99116.09;4973174;28;20053;-73
2021/04/18 17:48:26;;;;;;;13.57;8.30;;;;;;;9.30;62.33;99127.31;4973117;28;20098;-75
2021/04/18 17:50:52;;;;;;;15.20;8.10;;;;;;;9.27;62.11;99120.44;4972916;28;20050;-74
2021/04/18 17:53:17;;;;;;;12.32;7.88;;;;;;;9.25;62.94;99122.19;4972004;28;20042;-75
2021/04/18 17:55:43;;;;;;;12.50;7.60;;;;;;;9.20;63.11;99115.34;4973129;28;20105;-76
2021/04/18 17:58:08;;;;;;;13.63;8.27;;;;;;;9.20;63.15;99123.09;4972919;28;20086;-73
2021/04/18 18:00:34;;;;;;;13.48;8.27;;;;;;;9.04;63.22;99121.47;4972792;28;20052;-76
2021/04/18 18:02:59;;;;;;;11.68;8.02;;;;;;;8.98;63.86;99125.78;4971822;28;20031;-78
2021/04/18 18:05:25;;;;;;;15.80;9.25;;;;;;;8.87;65.36;99121.56;4972413;28;20552;-77
2021/04/18 18:07:51;;;;;;;11.85;8.32;;;;;;;8.86;66.11;99120.72;4966208;28;20030;-77
2021/04/18 18:10:17;;;;;;;12.43;9.10;;;;;;;8.61;67.58;99132.03;4963664;28;20487;-77
2021/04/18 18:12:43;;;;;;;15.40;8.27;;;;;;;8.54;68.11;99120.00;4964378;28;20102;-78
2021/04/18 18:15:10;;;;;;;14.75;9.00;;;;;;;8.39;69.06;99126.94;4963532;28;20150;-78
2021/04/18 18:17:36;;;;;;;13.82;9.40;;;;;;;8.33;68.42;99132.13;4964480;28;20046;-74
2021/04/18 18:20:03;;;;;;;17.10;9.18;;;;;;;8.35;68.38;99122.63;4963404;28;20447;-77
2021/04/18 18:22:29;;;;;;;14.10;8.93;;;;;;;8.24;68.58;99137.31;4967617;28;20069;-77
2021/04/18 18:24:54;;;;;;;18.52;9.25;;;;;;;8.20;69.24;99130.41;4967619;28;20479;-76
2021/04/18 18:27:20;;;;;;;14.20;9.07;;;;;;;8.13;69.56;99139.06;4964265;28;21009;-75
2021/04/18 18:29:45;;;;;;;12.60;8.38;;;;;;;8.04;70.10;99144.25;4964147;28;20089;-75
2021/04/18 18:32:11;;;;;;;14.27;8.23;;;;;;;8.01;70.43;99144.22;4964023;28;20026;-76